Time,TemperatureF,DewpointF,PressureIn,WindDirection,WindDirectionDegrees,WindSpeedMPH,WindSpeedGustMPH,Humidity,HourlyPrecipIn,Conditions,Clouds,dailyrainin,SoftwareType,DateUTC
2013-02-25 00:00:00,22.7,12.7,30.10,SE,142,0.0,0.0,65,0.00,,---,0.00,VWS V14.01,2013-02-25 07:00:00,
2013-02-25 00:05:00,23.3,12.6,30.10,SE,142,0.0,0.0,63,0.00,,---,0.00,VWS V14.01,2013-02-25 07:05:00,
2013-02-25 00:10:00,23.8,12.7,30.10,SE,142,0.0,0.0,62,0.00,,---,0.00,VWS V14.01,2013-02-25 07:10:00,
2013-02-25 00:15:00,23.5,13.1,30.10,SE,141,0.0,0.0,64,0.00,,---,0.00,VWS V14.01,2013-02-25 07:15:00,
2013-02-25 00:20:00,23.0,12.6,30.10,SE,141,0.0,0.0,64,0.00,,---,0.00,VWS V14.01,2013-02-25 07:20:00,
2013-02-25 00:25:00,22.3,12.7,30.10,SE,141,0.0,0.0,66,0.00,,---,0.00,VWS V14.01,2013-02-25 07:25:00,
2013-02-25 00:30:00,22.1,12.8,30.10,SE,142,0.0,0.0,67,0.00,,---,0.00,VWS V14.01,2013-02-25 07:30:00,
2013-02-25 00:35:00,22.5,12.5,30.11,SE,141,0.0,0.0,65,0.00,,---,0.00,VWS V14.01,2013-02-25 07:35:00,
2013-02-25 00:40:00,23.1,12.8,30.11,SE,141,0.0,0.0,64,0.00,,---,0.00,VWS V14.01,2013-02-25 07:40:00,
2013-02-25 00:45:00,23.5,12.4,30.11,SE,127,0.0,1.0,62,0.00,,---,0.00,VWS V14.01,2013-02-25 07:45:00,
2013-02-25 00:50:00,24.7,11.6,30.11,ESE,109,1.0,1.0,57,0.00,,---,0.00,VWS V14.01,2013-02-25 07:50:00,
2013-02-25 00:55:00,25.6,11.7,30.11,East,90,0.0,1.0,55,0.00,,---,0.00,VWS V14.01,2013-02-25 07:55:00,
2013-02-25 01:00:00,26.3,11.5,30.11,East,90,0.0,1.0,53,0.00,,---,0.00,VWS V14.01,2013-02-25 08:00:00,
2013-02-25 01:05:00,26.5,11.3,30.12,ENE,70,1.0,3.0,52,0.00,,---,0.00,VWS V14.01,2013-02-25 08:05:00,
2013-02-25 01:10:00,26.5,11.3,30.12,ENE,57,1.0,1.0,52,0.00,,---,0.00,VWS V14.01,2013-02-25 08:10:00,
2013-02-25 01:15:00,26.4,10.7,30.12,ENE,62,1.0,1.0,51,0.00,,---,0.00,VWS V14.01,2013-02-25 08:15:00,
2013-02-25 01:20:00,27.1,10.5,30.13,ENE,63,0.0,1.0,49,0.00,,---,0.00,VWS V14.01,2013-02-25 08:20:00,
2013-02-25 01:25:00,27.7,10.6,30.13,ENE,63,0.0,1.0,48,0.00,,---,0.00,VWS V14.01,2013-02-25 08:25:00,
2013-02-25 01:30:00,27.9,10.3,30.13,ENE,63,0.0,1.0,47,0.00,,---,0.00,VWS V14.01,2013-02-25 08:30:00,
2013-02-25 01:35:00,27.8,10.2,30.13,ENE,63,0.0,0.0,47,0.00,,---,0.00,VWS V14.01,2013-02-25 08:35:00,
2013-02-25 01:40:00,27.6,10.0,30.13,ENE,65,0.0,1.0,47,0.00,,---,0.00,VWS V14.01,2013-02-25 08:40:00,
2013-02-25 01:45:00,27.5,9.9,30.12,ENE,59,4.0,4.0,47,0.00,,---,0.00,VWS V14.01,2013-02-25 08:45:00,
2013-02-25 01:50:00,27.2,9.6,30.13,NE,48,3.0,4.0,47,0.00,,---,0.00,VWS V14.01,2013-02-25 08:50:00,
2013-02-25 01:55:00,27.4,9.8,30.13,ENE,63,1.0,1.0,47,0.00,,---,0.00,VWS V14.01,2013-02-25 08:55:00,
2013-02-25 02:00:00,26.8,9.8,30.13,ENE,57,0.0,1.0,48,0.00,,---,0.00,VWS V14.01,2013-02-25 09:00:00,
2013-02-25 02:05:00,27.0,9.9,30.13,ENE,61,0.0,1.0,48,0.00,,---,0.00,VWS V14.01,2013-02-25 09:05:00,
2013-02-25 02:10:00,27.4,9.8,30.13,NE,51,0.0,1.0,47,0.00,,---,0.00,VWS V14.01,2013-02-25 09:10:00,
2013-02-25 02:15:00,28.0,9.9,30.13,NE,46,0.0,1.0,46,0.00,,---,0.00,VWS V14.01,2013-02-25 09:15:00,
2013-02-25 02:20:00,28.6,10.0,30.13,NNE,19,0.0,1.0,45,0.00,,---,0.00,VWS V14.01,2013-02-25 09:20:00,
2013-02-25 02:25:00,28.9,9.7,30.13,North,355,1.0,1.0,44,0.00,,---,0.00,VWS V14.01,2013-02-25 09:25:00,
2013-02-25 02:30:00,29.3,10.1,30.13,NW,325,3.0,6.0,44,0.00,,---,0.00,VWS V14.01,2013-02-25 09:30:00,
2013-02-25 02:35:00,29.2,10.0,30.14,NW,323,1.0,5.0,44,0.00,,---,0.00,VWS V14.01,2013-02-25 09:35:00,
2013-02-25 02:40:00,29.5,10.3,30.14,North,355,0.0,2.0,44,0.00,,---,0.00,VWS V14.01,2013-02-25 09:40:00,
2013-02-25 02:45:00,28.6,10.0,30.14,NE,40,0.0,1.0,45,0.00,,---,0.00,VWS V14.01,2013-02-25 09:45:00,
2013-02-25 02:50:00,28.0,10.4,30.14,NE,40,0.0,1.0,47,0.00,,---,0.00,VWS V14.01,2013-02-25 09:50:00,
2013-02-25 02:55:00,27.4,9.8,30.14,NE,40,0.0,1.0,47,0.00,,---,0.00,VWS V14.01,2013-02-25 09:55:00,
2013-02-25 03:00:00,27.0,9.9,30.14,NE,41,0.0,1.0,48,0.00,,---,0.00,VWS V14.01,2013-02-25 10:00:00,
2013-02-25 03:05:00,26.9,9.9,30.15,NE,45,0.0,1.0,48,0.00,,---,0.00,VWS V14.01,2013-02-25 10:05:00,
2013-02-25 03:10:00,27.1,10.0,30.15,NE,39,0.0,1.0,48,0.00,,---,0.00,VWS V14.01,2013-02-25 10:10:00,
2013-02-25 03:15:00,27.6,10.0,30.15,NE,39,0.0,1.0,47,0.00,,---,0.00,VWS V14.01,2013-02-25 10:15:00,
2013-02-25 03:20:00,27.8,10.2,30.15,NE,36,0.0,1.0,47,0.00,,---,0.00,VWS V14.01,2013-02-25 10:20:00,
2013-02-25 03:25:00,27.9,10.8,30.15,NE,36,0.0,1.0,48,0.00,,---,0.00,VWS V14.01,2013-02-25 10:25:00,
2013-02-25 03:30:00,27.8,10.7,30.14,NE,36,0.0,1.0,48,0.00,,---,0.00,VWS V14.01,2013-02-25 10:30:00,
2013-02-25 03:35:00,27.6,10.5,30.14,NE,36,0.0,0.0,48,0.00,,---,0.00,VWS V14.01,2013-02-25 10:35:00,
2013-02-25 03:40:00,26.1,10.5,30.15,NE,36,0.0,1.0,51,0.00,,---,0.00,VWS V14.01,2013-02-25 10:40:00,
2013-02-25 03:45:00,25.1,10.0,30.15,NE,41,0.0,1.0,52,0.00,,---,0.00,VWS V14.01,2013-02-25 10:45:00,
2013-02-25 03:50:00,25.7,10.5,30.15,NE,40,0.0,1.0,52,0.00,,---,0.00,VWS V14.01,2013-02-25 10:50:00,
2013-02-25 03:55:00,25.8,10.6,30.15,NE,41,0.0,1.0,52,0.00,,---,0.00,VWS V14.01,2013-02-25 10:55:00,
2013-02-25 04:00:00,24.8,10.9,30.16,NE,42,0.0,0.0,55,0.00,,---,0.00,VWS V14.01,2013-02-25 11:00:00,
2013-02-25 04:05:00,23.3,11.1,30.15,NE,42,0.0,0.0,59,0.00,,---,0.00,VWS V14.01,2013-02-25 11:05:00,
2013-02-25 04:10:00,22.3,10.9,30.16,NE,42,0.0,0.0,61,0.00,,---,0.00,VWS V14.01,2013-02-25 11:10:00,
2013-02-25 04:15:00,22.0,11.0,30.16,NE,42,0.0,0.0,62,0.00,,---,0.00,VWS V14.01,2013-02-25 11:15:00,
2013-02-25 04:20:00,22.3,11.3,30.16,NE,44,0.0,0.0,62,0.00,,---,0.00,VWS V14.01,2013-02-25 11:20:00,
2013-02-25 04:25:00,22.7,11.3,30.16,East,93,0.0,1.0,61,0.00,,---,0.00,VWS V14.01,2013-02-25 11:25:00,
2013-02-25 04:30:00,23.0,13.4,30.16,East,93,0.0,1.0,66,0.00,,---,0.00,VWS V14.01,2013-02-25 11:30:00,
2013-02-25 04:35:00,22.7,11.6,30.16,East,92,0.0,0.0,62,0.00,,---,0.00,VWS V14.01,2013-02-25 11:35:00,
2013-02-25 04:40:00,22.4,11.7,30.16,East,93,0.0,0.0,63,0.00,,---,0.00,VWS V14.01,2013-02-25 11:40:00,
2013-02-25 04:45:00,22.0,11.7,30.16,East,92,0.0,0.0,64,0.00,,---,0.00,VWS V14.01,2013-02-25 11:45:00,
2013-02-25 04:50:00,21.5,11.9,30.16,East,93,0.0,0.0,66,0.00,,---,0.00,VWS V14.01,2013-02-25 11:50:00,
2013-02-25 04:55:00,21.2,12.0,30.17,East,92,0.0,0.0,67,0.00,,---,0.00,VWS V14.01,2013-02-25 11:55:00,
2013-02-25 05:00:00,21.4,12.2,30.17,East,92,0.0,0.0,67,0.00,,---,0.00,VWS V14.01,2013-02-25 12:00:00,
2013-02-25 05:05:00,21.9,12.3,30.17,East,92,0.0,1.0,66,0.00,,---,0.00,VWS V14.01,2013-02-25 12:05:00,
2013-02-25 05:10:00,22.2,12.2,30.17,East,91,0.0,1.0,65,0.00,,---,0.00,VWS V14.01,2013-02-25 12:10:00,
2013-02-25 05:15:00,22.4,12.4,30.17,East,90,0.0,1.0,65,0.00,,---,0.00,VWS V14.01,2013-02-25 12:15:00,
2013-02-25 05:20:00,22.3,12.0,30.18,East,80,0.0,1.0,64,0.00,,---,0.00,VWS V14.01,2013-02-25 12:20:00,
2013-02-25 05:25:00,22.1,12.1,30.18,East,79,0.0,0.0,65,0.00,,---,0.00,VWS V14.01,2013-02-25 12:25:00,
2013-02-25 05:30:00,22.0,12.1,30.18,East,80,0.0,0.0,65,0.00,,---,0.00,VWS V14.01,2013-02-25 12:30:00,
2013-02-25 05:35:00,22.0,12.1,30.18,East,86,0.0,1.0,65,0.00,,---,0.00,VWS V14.01,2013-02-25 12:35:00,
2013-02-25 05:40:00,23.0,12.3,30.18,East,86,0.0,0.0,63,0.00,,---,0.00,VWS V14.01,2013-02-25 12:40:00,
2013-02-25 05:45:00,23.3,12.2,30.18,East,86,0.0,0.0,62,0.00,,---,0.00,VWS V14.01,2013-02-25 12:45:00,
2013-02-25 05:50:00,23.0,12.3,30.18,East,85,0.0,1.0,63,0.00,,---,0.00,VWS V14.01,2013-02-25 12:50:00,
2013-02-25 05:55:00,23.1,12.4,30.18,East,84,0.0,1.0,63,0.00,,---,0.00,VWS V14.01,2013-02-25 12:55:00,
2013-02-25 06:00:00,23.3,12.2,30.19,East,85,0.0,0.0,62,0.00,,---,0.00,VWS V14.01,2013-02-25 13:00:00,
2013-02-25 06:05:00,23.2,12.1,30.19,East,85,0.0,1.0,62,0.00,,---,0.00,VWS V14.01,2013-02-25 13:05:00,
2013-02-25 06:10:00,22.8,12.1,30.19,East,85,0.0,0.0,63,0.00,,---,0.00,VWS V14.01,2013-02-25 13:10:00,
2013-02-25 06:15:00,22.5,12.2,30.18,East,85,0.0,0.0,64,0.00,,---,0.00,VWS V14.01,2013-02-25 13:15:00,
2013-02-25 06:20:00,22.1,11.8,30.18,East,84,0.0,0.0,64,0.00,,---,0.00,VWS V14.01,2013-02-25 13:20:00,
2013-02-25 06:25:00,21.8,11.9,30.18,East,85,0.0,0.0,65,0.00,,---,0.00,VWS V14.01,2013-02-25 13:25:00,
2013-02-25 06:30:00,22.0,12.1,30.19,East,85,0.0,0.0,65,0.00,,---,0.00,VWS V14.01,2013-02-25 13:30:00,
2013-02-25 06:35:00,21.7,11.8,30.19,East,84,0.0,0.0,65,0.00,,---,0.00,VWS V14.01,2013-02-25 13:35:00,
2013-02-25 06:36:00,21.4,11.5,30.19,East,85,0.0,0.0,65,0.00,,---,0.00,VWS V14.01,2013-02-25 13:36:00,
2013-02-25 06:40:00,21.1,11.5,30.19,East,85,0.0,0.0,66,0.00,,---,0.00,VWS V14.01,2013-02-25 13:40:00,
2013-02-25 06:41:00,20.8,11.6,30.20,East,85,0.0,0.0,67,0.00,,---,0.00,VWS V14.01,2013-02-25 13:41:00,
2013-02-25 06:45:00,20.6,11.7,30.20,East,85,0.0,0.0,68,0.00,,---,0.00,VWS V14.01,2013-02-25 13:45:00,
2013-02-25 06:46:00,20.3,11.4,30.20,East,84,0.0,0.0,68,0.00,,---,0.00,VWS V14.01,2013-02-25 13:46:00,
2013-02-25 06:50:00,20.0,11.5,30.20,East,84,0.0,0.0,69,0.00,,---,0.00,VWS V14.01,2013-02-25 13:50:00,
2013-02-25 06:51:00,19.8,11.6,30.20,East,84,0.0,0.0,70,0.00,,---,0.00,VWS V14.01,2013-02-25 13:51:00,
2013-02-25 06:55:00,19.7,11.8,30.20,East,85,0.0,0.0,71,0.00,,---,0.00,VWS V14.01,2013-02-25 13:55:00,
2013-02-25 06:56:00,19.9,12.0,30.21,East,85,0.0,0.0,71,0.00,,---,0.00,VWS V14.01,2013-02-25 13:56:00,
2013-02-25 07:00:00,20.0,12.1,30.21,East,85,0.0,0.0,71,0.00,,---,0.00,VWS V14.01,2013-02-25 14:00:00,
2013-02-25 07:01:00,20.1,12.2,30.21,East,84,0.0,0.0,71,0.00,,---,0.00,VWS V14.01,2013-02-25 14:01:00,
2013-02-25 07:05:00,20.1,12.5,30.21,East,85,0.0,0.0,72,0.00,,---,0.00,VWS V14.01,2013-02-25 14:05:00,
2013-02-25 07:06:00,20.1,12.5,30.21,East,85,0.0,0.0,72,0.00,,---,0.00,VWS V14.01,2013-02-25 14:06:00,
2013-02-25 07:10:00,20.0,12.4,30.21,East,84,0.0,0.0,72,0.00,,---,0.00,VWS V14.01,2013-02-25 14:10:00,
2013-02-25 07:11:00,20.3,12.7,30.21,East,84,0.0,0.0,72,0.00,,---,0.00,VWS V14.01,2013-02-25 14:11:00,
2013-02-25 07:15:00,20.6,13.0,30.21,East,85,0.0,0.0,72,0.00,,---,0.00,VWS V14.01,2013-02-25 14:15:00,
2013-02-25 07:16:00,21.1,13.5,30.21,East,85,0.0,0.0,72,0.00,,---,0.00,VWS V14.01,2013-02-25 14:16:00,
2013-02-25 07:20:00,21.7,14.1,30.21,East,85,0.0,0.0,72,0.00,,---,0.00,VWS V14.01,2013-02-25 14:20:00,
2013-02-25 07:21:00,22.6,14.3,30.21,East,85,0.0,0.0,70,0.00,,---,0.00,VWS V14.01,2013-02-25 14:21:00,
2013-02-25 07:25:00,23.3,14.6,30.21,East,84,0.0,0.0,69,0.00,,---,0.00,VWS V14.01,2013-02-25 14:25:00,
2013-02-25 07:26:00,24.2,14.8,30.21,East,84,0.0,0.0,67,0.00,,---,0.00,VWS V14.01,2013-02-25 14:26:00,
2013-02-25 07:30:00,24.7,15.0,30.21,East,85,0.0,0.0,66,0.00,,---,0.00,VWS V14.01,2013-02-25 14:30:00,
2013-02-25 07:31:00,25.4,14.9,30.22,East,85,0.0,0.0,64,0.00,,---,0.00,VWS V14.01,2013-02-25 14:31:00,
2013-02-25 07:35:00,26.0,15.5,30.22,East,85,0.0,0.0,64,0.00,,---,0.00,VWS V14.01,2013-02-25 14:35:00,
2013-02-25 07:36:00,26.7,15.8,30.22,East,84,0.0,0.0,63,0.00,,---,0.00,VWS V14.01,2013-02-25 14:36:00,
2013-02-25 07:40:00,27.2,15.9,30.22,East,85,0.0,0.0,62,0.00,,---,0.00,VWS V14.01,2013-02-25 14:40:00,
2013-02-25 07:41:00,27.9,15.4,30.22,East,84,0.0,0.0,59,0.00,,---,0.00,VWS V14.01,2013-02-25 14:41:00,
2013-02-25 07:45:00,28.5,15.6,30.22,East,85,0.0,0.0,58,0.00,,---,0.00,VWS V14.01,2013-02-25 14:45:00,
2013-02-25 07:46:00,29.2,15.9,30.22,East,84,0.0,0.0,57,0.00,,---,0.00,VWS V14.01,2013-02-25 14:46:00,
2013-02-25 07:50:00,29.8,16.0,30.23,East,84,0.0,0.0,56,0.00,,---,0.00,VWS V14.01,2013-02-25 14:50:00,
2013-02-25 07:51:00,30.6,16.4,30.23,East,85,0.0,0.0,55,0.00,,---,0.00,VWS V14.01,2013-02-25 14:51:00,
2013-02-25 07:55:00,31.0,15.9,30.23,East,85,0.0,0.0,53,0.00,,---,0.00,VWS V14.01,2013-02-25 14:55:00,
2013-02-25 07:56:00,31.4,15.4,30.24,East,84,0.0,0.0,51,0.00,,---,0.00,VWS V14.01,2013-02-25 14:56:00,
2013-02-25 08:00:00,31.6,15.1,30.23,East,85,0.0,0.0,50,0.00,,---,0.00,VWS V14.01,2013-02-25 15:00:00,
2013-02-25 08:01:00,31.7,14.7,30.24,East,85,0.0,0.0,49,0.00,,---,0.00,VWS V14.01,2013-02-25 15:01:00,
2013-02-25 08:05:00,31.9,15.4,30.24,East,84,0.0,0.0,50,0.00,,---,0.00,VWS V14.01,2013-02-25 15:05:00,
2013-02-25 08:06:00,32.1,15.1,30.24,East,84,0.0,0.0,49,0.00,,---,0.00,VWS V14.01,2013-02-25 15:06:00,
2013-02-25 08:10:00,32.3,14.8,30.24,East,84,0.0,0.0,48,0.00,,---,0.00,VWS V14.01,2013-02-25 15:10:00,
2013-02-25 08:11:00,32.6,15.1,30.25,East,85,1.0,1.0,48,0.00,,---,0.00,VWS V14.01,2013-02-25 15:11:00,
2013-02-25 08:15:00,32.8,14.8,30.25,East,85,1.0,3.0,47,0.00,,---,0.00,VWS V14.01,2013-02-25 15:15:00,
2013-02-25 08:16:00,32.9,14.4,30.25,WSW,248,4.0,5.0,46,0.00,,---,0.00,VWS V14.01,2013-02-25 15:16:00,
2013-02-25 08:20:00,33.0,14.0,30.25,WSW,252,2.0,5.0,45,0.00,,---,0.00,VWS V14.01,2013-02-25 15:20:00,
2013-02-25 08:21:00,33.1,13.6,30.25,WSW,253,2.0,3.0,44,0.00,,---,0.00,VWS V14.01,2013-02-25 15:21:00,
2013-02-25 08:25:00,33.1,13.6,30.25,WSW,254,0.0,3.0,44,0.00,,---,0.00,VWS V14.01,2013-02-25 15:25:00,
2013-02-25 08:26:00,33.2,13.7,30.25,WSW,254,1.0,3.0,44,0.00,,---,0.00,VWS V14.01,2013-02-25 15:26:00,
2013-02-25 08:30:00,33.3,13.2,30.26,WSW,253,0.0,3.0,43,0.00,,---,0.00,VWS V14.01,2013-02-25 15:30:00,
2013-02-25 08:31:00,33.4,12.8,30.26,WSW,255,2.0,3.0,42,0.00,,---,0.00,VWS V14.01,2013-02-25 15:31:00,
2013-02-25 08:35:00,33.4,13.3,30.26,WSW,256,2.0,3.0,43,0.00,,---,0.00,VWS V14.01,2013-02-25 15:35:00,
2013-02-25 08:36:00,33.4,13.3,30.26,WSW,257,0.0,2.0,43,0.00,,---,0.00,VWS V14.01,2013-02-25 15:36:00,
2013-02-25 08:40:00,33.5,12.9,30.26,WSW,256,0.0,2.0,42,0.00,,---,0.00,VWS V14.01,2013-02-25 15:40:00,
2013-02-25 08:41:00,33.7,13.6,30.26,WSW,258,1.0,2.0,43,0.00,,---,0.00,VWS V14.01,2013-02-25 15:41:00,
2013-02-25 08:45:00,33.9,13.8,30.26,West,268,2.0,3.0,43,0.00,,---,0.00,VWS V14.01,2013-02-25 15:45:00,
2013-02-25 08:46:00,34.0,13.9,30.26,WNW,286,2.0,6.0,43,0.00,,---,0.00,VWS V14.01,2013-02-25 15:46:00,
2013-02-25 08:50:00,34.1,13.4,30.26,NW,321,1.0,6.0,42,0.00,,---,0.00,VWS V14.01,2013-02-25 15:50:00,
2013-02-25 08:51:00,34.4,13.7,30.26,NW,322,0.0,2.0,42,0.00,,---,0.00,VWS V14.01,2013-02-25 15:51:00,
2013-02-25 08:55:00,34.4,13.7,30.26,NW,321,2.0,2.0,42,0.00,,---,0.00,VWS V14.01,2013-02-25 15:55:00,
2013-02-25 08:56:00,34.4,13.7,30.26,NW,321,0.0,2.0,42,0.00,,---,0.00,VWS V14.01,2013-02-25 15:56:00,
2013-02-25 09:00:00,34.4,13.7,30.26,NW,321,0.0,2.0,42,0.00,,---,0.00,VWS V14.01,2013-02-25 16:00:00,
2013-02-25 09:01:00,34.9,14.1,30.26,NW,321,0.0,1.0,42,0.00,,---,0.00,VWS V14.01,2013-02-25 16:01:00,
2013-02-25 09:05:00,35.3,14.5,30.26,NW,322,0.0,2.0,42,0.00,,---,0.00,VWS V14.01,2013-02-25 16:05:00,
2013-02-25 09:06:00,35.5,14.1,30.26,NW,326,0.0,1.0,41,0.00,,---,0.00,VWS V14.01,2013-02-25 16:06:00,
2013-02-25 09:10:00,35.7,13.8,30.26,NNW,329,2.0,2.0,40,0.00,,---,0.00,VWS V14.01,2013-02-25 16:10:00,
2013-02-25 09:11:00,35.9,13.9,30.26,NNW,345,1.0,5.0,40,0.00,,---,0.00,VWS V14.01,2013-02-25 16:11:00,
2013-02-25 09:15:00,35.8,13.9,30.26,NNW,344,2.0,5.0,40,0.00,,---,0.00,VWS V14.01,2013-02-25 16:15:00,
2013-02-25 09:16:00,35.9,13.9,30.26,NNW,342,1.0,3.0,40,0.00,,---,0.00,VWS V14.01,2013-02-25 16:16:00,
2013-02-25 09:20:00,36.1,13.6,30.26,NNW,344,0.0,3.0,39,0.00,,---,0.00,VWS V14.01,2013-02-25 16:20:00,
2013-02-25 09:21:00,36.4,14.4,30.26,NW,315,2.0,4.0,40,0.00,,---,0.00,VWS V14.01,2013-02-25 16:21:00,
2013-02-25 09:25:00,36.6,14.0,30.26,NW,315,5.0,7.0,39,0.00,,---,0.00,VWS V14.01,2013-02-25 16:25:00,
2013-02-25 09:26:00,36.8,14.2,30.26,NW,307,2.0,6.0,39,0.00,,---,0.00,VWS V14.01,2013-02-25 16:26:00,
2013-02-25 09:30:00,36.9,13.7,30.26,NW,324,2.0,6.0,38,0.00,,---,0.00,VWS V14.01,2013-02-25 16:30:00,
2013-02-25 09:31:00,37.2,14.5,30.26,WNW,295,4.0,6.0,39,0.00,,---,0.00,VWS V14.01,2013-02-25 16:31:00,
2013-02-25 09:35:00,37.4,14.1,30.26,NW,322,0.0,6.0,38,0.00,,---,0.00,VWS V14.01,2013-02-25 16:35:00,
2013-02-25 09:36:00,37.5,14.2,30.26,NW,319,3.0,5.0,38,0.00,,---,0.00,VWS V14.01,2013-02-25 16:36:00,
2013-02-25 09:40:00,37.7,13.8,30.26,NW,325,6.0,7.0,37,0.00,,---,0.00,VWS V14.01,2013-02-25 16:40:00,
2013-02-25 09:41:00,37.8,14.5,30.26,WNW,299,10.0,11.0,38,0.00,,---,0.00,VWS V14.01,2013-02-25 16:41:00,
2013-02-25 09:45:00,38.0,14.1,30.26,NW,325,11.0,12.0,37,0.00,,---,0.00,VWS V14.01,2013-02-25 16:45:00,
2013-02-25 09:46:00,38.1,14.1,30.26,NW,304,2.0,11.0,37,0.00,,---,0.00,VWS V14.01,2013-02-25 16:46:00,
2013-02-25 09:50:00,38.3,14.3,30.26,WNW,300,4.0,11.0,37,0.00,,---,0.00,VWS V14.01,2013-02-25 16:50:00,
2013-02-25 09:51:00,38.6,14.0,30.26,NW,314,7.0,9.0,36,0.00,,---,0.00,VWS V14.01,2013-02-25 16:51:00,
2013-02-25 09:55:00,38.6,14.0,30.26,NW,305,12.0,12.0,36,0.00,,---,0.00,VWS V14.01,2013-02-25 16:55:00,
2013-02-25 09:56:00,38.4,14.4,30.26,WNW,298,7.0,12.0,37,0.00,,---,0.00,VWS V14.01,2013-02-25 16:56:00,
2013-02-25 10:00:00,38.5,13.9,30.26,NW,309,11.0,13.0,36,0.00,,---,0.00,VWS V14.01,2013-02-25 17:00:00,
2013-02-25 10:01:00,38.5,13.9,30.26,NW,306,10.0,11.0,36,0.00,,---,0.00,VWS V14.01,2013-02-25 17:01:00,
2013-02-25 10:05:00,38.4,14.4,30.26,NNW,329,7.0,11.0,37,0.00,,---,0.00,VWS V14.01,2013-02-25 17:05:00,
2013-02-25 10:06:00,38.3,13.7,30.25,NW,320,6.0,10.0,36,0.00,,---,0.00,VWS V14.01,2013-02-25 17:06:00,
2013-02-25 10:10:00,38.3,13.7,30.25,NW,317,4.0,13.0,36,0.00,,---,0.00,VWS V14.01,2013-02-25 17:10:00,
2013-02-25 10:11:00,38.6,14.6,30.25,WNW,300,6.0,11.0,37,0.00,,---,0.00,VWS V14.01,2013-02-25 17:11:00,
2013-02-25 10:15:00,38.8,14.8,30.25,NNW,336,3.0,12.0,37,0.00,,---,0.00,VWS V14.01,2013-02-25 17:15:00,
2013-02-25 10:16:00,39.2,14.5,30.25,NW,317,8.0,10.0,36,0.00,,---,0.00,VWS V14.01,2013-02-25 17:16:00,
2013-02-25 10:20:00,39.5,14.1,30.25,NW,317,5.0,12.0,35,0.00,,---,0.00,VWS V14.01,2013-02-25 17:20:00,
2013-02-25 10:21:00,39.5,14.1,30.25,WNW,295,9.0,12.0,35,0.00,,---,0.00,VWS V14.01,2013-02-25 17:21:00,
2013-02-25 10:25:00,39.5,14.1,30.25,WNW,290,8.0,12.0,35,0.00,,---,0.00,VWS V14.01,2013-02-25 17:25:00,
2013-02-25 10:26:00,39.6,14.9,30.25,NNW,327,9.0,11.0,36,0.00,,---,0.00,VWS V14.01,2013-02-25 17:26:00,
2013-02-25 10:30:00,39.6,14.2,30.25,North,350,4.0,11.0,35,0.00,,---,0.00,VWS V14.01,2013-02-25 17:30:00,
2013-02-25 10:31:00,39.8,14.4,30.25,NNW,329,2.0,9.0,35,0.00,,---,0.00,VWS V14.01,2013-02-25 17:31:00,
2013-02-25 10:35:00,39.9,14.5,30.25,North,355,5.0,12.0,35,0.00,,---,0.00,VWS V14.01,2013-02-25 17:35:00,
2013-02-25 10:36:00,40.0,13.9,30.25,North,355,1.0,9.0,34,0.00,,---,0.00,VWS V14.01,2013-02-25 17:36:00,
2013-02-25 10:40:00,40.2,14.8,30.25,NW,322,8.0,11.0,35,0.00,,---,0.00,VWS V14.01,2013-02-25 17:40:00,
2013-02-25 10:41:00,40.5,14.4,30.25,NW,306,9.0,12.0,34,0.00,,---,0.00,VWS V14.01,2013-02-25 17:41:00,
2013-02-25 10:45:00,40.6,14.4,30.25,NW,326,0.0,12.0,34,0.00,,---,0.00,VWS V14.01,2013-02-25 17:45:00,
2013-02-25 10:46:00,40.6,14.4,30.25,NNW,327,10.0,12.0,34,0.00,,---,0.00,VWS V14.01,2013-02-25 17:46:00,
2013-02-25 10:50:00,40.5,13.7,30.25,NNW,333,2.0,12.0,33,0.00,,---,0.00,VWS V14.01,2013-02-25 17:50:00,
2013-02-25 10:51:00,40.5,14.4,30.25,NW,304,2.0,9.0,34,0.00,,---,0.00,VWS V14.01,2013-02-25 17:51:00,
2013-02-25 10:55:00,40.7,14.5,30.25,NW,319,10.0,11.0,34,0.00,,---,0.00,VWS V14.01,2013-02-25 17:55:00,
2013-02-25 10:56:00,40.9,14.7,30.25,WNW,296,13.0,14.0,34,0.00,,---,0.00,VWS V14.01,2013-02-25 17:56:00,
2013-02-25 11:00:00,41.1,14.9,30.25,NW,315,5.0,14.0,34,0.00,,---,0.00,VWS V14.01,2013-02-25 18:00:00,
2013-02-25 11:01:00,41.3,14.4,30.25,NW,317,3.0,9.0,33,0.00,,---,0.00,VWS V14.01,2013-02-25 18:01:00,
2013-02-25 11:05:00,41.6,14.6,30.25,WNW,296,10.0,10.0,33,0.00,,---,0.00,VWS V14.01,2013-02-25 18:05:00,
2013-02-25 11:06:00,41.9,14.2,30.25,WNW,296,10.0,13.0,32,0.00,,---,0.00,VWS V14.01,2013-02-25 18:06:00,
2013-02-25 11:10:00,42.1,13.7,30.25,NW,304,4.0,13.0,31,0.00,,---,0.00,VWS V14.01,2013-02-25 18:10:00,
2013-02-25 11:11:00,42.1,14.4,30.25,NW,323,4.0,11.0,32,0.00,,---,0.00,VWS V14.01,2013-02-25 18:11:00,
2013-02-25 11:15:00,42.0,14.3,30.25,WNW,287,10.0,18.0,32,0.00,,---,0.00,VWS V14.01,2013-02-25 18:15:00,
2013-02-25 11:16:00,42.0,14.3,30.26,NW,304,5.0,12.0,32,0.00,,---,0.00,VWS V14.01,2013-02-25 18:16:00,
2013-02-25 11:20:00,42.0,15.0,30.26,WNW,292,7.0,12.0,33,0.00,,---,0.00,VWS V14.01,2013-02-25 18:20:00,
2013-02-25 11:21:00,42.0,14.3,30.25,WNW,286,3.0,10.0,32,0.00,,---,0.00,VWS V14.01,2013-02-25 18:21:00,
2013-02-25 11:25:00,42.3,14.6,30.25,NW,321,8.0,13.0,32,0.00,,---,0.00,VWS V14.01,2013-02-25 18:25:00,
2013-02-25 11:26:00,42.3,13.8,30.25,NNW,333,3.0,10.0,31,0.00,,---,0.00,VWS V14.01,2013-02-25 18:26:00,
2013-02-25 11:30:00,42.1,13.7,30.25,NW,326,4.0,10.0,31,0.00,,---,0.00,VWS V14.01,2013-02-25 18:30:00,
2013-02-25 11:31:00,42.2,13.8,30.25,NW,325,6.0,13.0,31,0.00,,---,0.00,VWS V14.01,2013-02-25 18:31:00,
2013-02-25 11:35:00,42.5,14.0,30.25,NW,323,7.0,13.0,31,0.00,,---,0.00,VWS V14.01,2013-02-25 18:35:00,
2013-02-25 11:36:00,42.8,14.3,30.25,NNW,336,6.0,12.0,31,0.00,,---,0.00,VWS V14.01,2013-02-25 18:36:00,
2013-02-25 11:40:00,42.8,14.3,30.24,NNW,330,6.0,12.0,31,0.00,,---,0.00,VWS V14.01,2013-02-25 18:40:00,
2013-02-25 11:41:00,42.8,15.0,30.24,NNW,340,7.0,12.0,32,0.00,,---,0.00,VWS V14.01,2013-02-25 18:41:00,
2013-02-25 11:45:00,43.0,14.4,30.24,WNW,301,7.0,12.0,31,0.00,,---,0.00,VWS V14.01,2013-02-25 18:45:00,
2013-02-25 11:46:00,43.1,13.8,30.24,West,277,6.0,11.0,30,0.00,,---,0.00,VWS V14.01,2013-02-25 18:46:00,
2013-02-25 11:50:00,43.0,13.7,30.24,West,273,7.0,11.0,30,0.00,,---,0.00,VWS V14.01,2013-02-25 18:50:00,
2013-02-25 11:51:00,42.9,14.4,30.24,West,271,5.0,7.0,31,0.00,,---,0.00,VWS V14.01,2013-02-25 18:51:00,
2013-02-25 11:55:00,43.2,14.6,30.24,WNW,289,4.0,11.0,31,0.00,,---,0.00,VWS V14.01,2013-02-25 18:55:00,
2013-02-25 11:56:00,43.6,14.2,30.24,NNW,329,3.0,12.0,30,0.00,,---,0.00,VWS V14.01,2013-02-25 18:56:00,
2013-02-25 12:00:00,43.5,14.1,30.24,NW,322,8.0,12.0,30,0.00,,---,0.00,VWS V14.01,2013-02-25 19:00:00,
2013-02-25 12:01:00,43.6,13.5,30.24,WNW,300,4.0,11.0,29,0.00,,---,0.00,VWS V14.01,2013-02-25 19:01:00,
2013-02-25 12:05:00,43.7,13.5,30.24,NW,304,3.0,11.0,29,0.00,,---,0.00,VWS V14.01,2013-02-25 19:05:00,
2013-02-25 12:06:00,43.8,14.4,30.24,West,274,5.0,7.0,30,0.00,,---,0.00,VWS V14.01,2013-02-25 19:06:00,
2013-02-25 12:10:00,43.6,15.0,30.24,WNW,284,7.0,8.0,31,0.00,,---,0.00,VWS V14.01,2013-02-25 19:10:00,
2013-02-25 12:11:00,43.7,14.3,30.23,West,271,6.0,9.0,30,0.00,,---,0.00,VWS V14.01,2013-02-25 19:11:00,
2013-02-25 12:15:00,44.0,13.8,30.23,WNW,282,3.0,10.0,29,0.00,,---,0.00,VWS V14.01,2013-02-25 19:15:00,
2013-02-25 12:16:00,44.1,14.7,30.23,WNW,303,7.0,8.0,30,0.00,,---,0.00,VWS V14.01,2013-02-25 19:16:00,
2013-02-25 12:20:00,43.9,14.5,30.23,WNW,292,3.0,11.0,30,0.00,,---,0.00,VWS V14.01,2013-02-25 19:20:00,
2013-02-25 12:21:00,44.0,15.3,30.23,WNW,288,7.0,13.0,31,0.00,,---,0.00,VWS V14.01,2013-02-25 19:21:00,
2013-02-25 12:25:00,44.4,14.9,30.22,NW,311,4.0,13.0,30,0.00,,---,0.00,VWS V14.01,2013-02-25 19:25:00,
2013-02-25 12:26:00,44.9,15.4,30.22,WNW,288,7.0,9.0,30,0.00,,---,0.00,VWS V14.01,2013-02-25 19:26:00,
2013-02-25 12:30:00,45.0,14.7,30.22,NW,306,6.0,10.0,29,0.00,,---,0.00,VWS V14.01,2013-02-25 19:30:00,
2013-02-25 12:31:00,45.0,13.9,30.22,NW,317,0.0,9.0,28,0.00,,---,0.00,VWS V14.01,2013-02-25 19:31:00,
2013-02-25 12:35:00,45.0,14.7,30.22,NW,306,4.0,10.0,29,0.00,,---,0.00,VWS V14.01,2013-02-25 19:35:00,
2013-02-25 12:36:00,44.9,15.4,30.22,WNW,287,10.0,10.0,30,0.00,,---,0.00,VWS V14.01,2013-02-25 19:36:00,
2013-02-25 12:40:00,45.1,15.5,30.22,NW,309,5.0,11.0,30,0.00,,---,0.00,VWS V14.01,2013-02-25 19:40:00,
2013-02-25 12:41:00,45.1,14.8,30.22,West,273,0.0,11.0,29,0.00,,---,0.00,VWS V14.01,2013-02-25 19:41:00,
2013-02-25 12:45:00,45.3,15.7,30.21,West,279,3.0,11.0,30,0.00,,---,0.00,VWS V14.01,2013-02-25 19:45:00,
2013-02-25 12:46:00,45.4,15.0,30.21,WNW,296,5.0,11.0,29,0.00,,---,0.00,VWS V14.01,2013-02-25 19:46:00,
2013-02-25 12:50:00,45.7,15.3,30.21,WNW,288,4.0,11.0,29,0.00,,---,0.00,VWS V14.01,2013-02-25 19:50:00,
2013-02-25 12:51:00,45.7,14.5,30.21,WNW,300,6.0,7.0,28,0.00,,---,0.00,VWS V14.01,2013-02-25 19:51:00,
2013-02-25 12:55:00,45.8,14.6,30.20,NNW,344,4.0,7.0,28,0.00,,---,0.00,VWS V14.01,2013-02-25 19:55:00,
2013-02-25 12:56:00,45.8,14.6,30.20,NW,317,2.0,5.0,28,0.00,,---,0.00,VWS V14.01,2013-02-25 19:56:00,
2013-02-25 13:00:00,45.8,14.6,30.20,WNW,296,0.0,6.0,28,0.00,,---,0.00,VWS V14.01,2013-02-25 20:00:00,
2013-02-25 13:01:00,46.0,14.7,30.20,WNW,296,0.0,1.0,28,0.00,,---,0.00,VWS V14.01,2013-02-25 20:01:00,
2013-02-25 13:05:00,46.3,14.2,30.20,NW,314,5.0,8.0,27,0.00,,---,0.00,VWS V14.01,2013-02-25 20:05:00,
2013-02-25 13:06:00,46.3,14.2,30.19,WNW,289,3.0,7.0,27,0.00,,---,0.00,VWS V14.01,2013-02-25 20:06:00,
2013-02-25 13:10:00,46.1,14.8,30.19,NW,324,5.0,7.0,28,0.00,,---,0.00,VWS V14.01,2013-02-25 20:10:00,
2013-02-25 13:11:00,46.3,15.0,30.19,WNW,303,7.0,7.0,28,0.00,,---,0.00,VWS V14.01,2013-02-25 20:11:00,
2013-02-25 13:15:00,46.5,15.2,30.19,NW,307,1.0,8.0,28,0.00,,---,0.00,VWS V14.01,2013-02-25 20:15:00,
2013-02-25 13:16:00,46.7,15.3,30.19,West,277,1.0,9.0,28,0.00,,---,0.00,VWS V14.01,2013-02-25 20:16:00,
2013-02-25 13:20:00,46.8,15.4,30.19,West,263,3.0,9.0,28,0.00,,---,0.00,VWS V14.01,2013-02-25 20:20:00,
2013-02-25 13:21:00,47.0,15.6,30.18,West,281,9.0,11.0,28,0.00,,---,0.00,VWS V14.01,2013-02-25 20:21:00,
2013-02-25 13:25:00,46.9,14.7,30.19,WNW,295,3.0,11.0,27,0.00,,---,0.00,VWS V14.01,2013-02-25 20:25:00,
2013-02-25 13:26:00,47.0,14.8,30.18,NNW,341,5.0,6.0,27,0.00,,---,0.00,VWS V14.01,2013-02-25 20:26:00,
2013-02-25 13:30:00,47.1,14.0,30.18,NNW,341,2.0,6.0,26,0.00,,---,0.00,VWS V14.01,2013-02-25 20:30:00,
2013-02-25 13:31:00,47.4,14.2,30.18,WNW,294,5.0,10.0,26,0.00,,---,0.00,VWS V14.01,2013-02-25 20:31:00,
2013-02-25 13:35:00,47.7,14.5,30.18,NW,317,8.0,12.0,26,0.00,,---,0.00,VWS V14.01,2013-02-25 20:35:00,
2013-02-25 13:36:00,47.8,14.6,30.18,NW,323,3.0,8.0,26,0.00,,---,0.00,VWS V14.01,2013-02-25 20:36:00,
2013-02-25 13:40:00,47.8,14.6,30.18,NNW,330,0.0,8.0,26,0.00,,---,0.00,VWS V14.01,2013-02-25 20:40:00,
2013-02-25 13:41:00,48.2,14.9,30.18,NW,311,3.0,5.0,26,0.00,,---,0.00,VWS V14.01,2013-02-25 20:41:00,
2013-02-25 13:45:00,48.5,13.4,30.17,NW,310,0.0,6.0,24,0.00,,---,0.00,VWS V14.01,2013-02-25 20:45:00,
2013-02-25 13:46:00,48.6,14.4,30.17,North,5,2.0,3.0,25,0.00,,---,0.00,VWS V14.01,2013-02-25 20:46:00,
2013-02-25 13:50:00,48.7,14.5,30.17,North,349,2.0,4.0,25,0.00,,---,0.00,VWS V14.01,2013-02-25 20:50:00,
2013-02-25 13:51:00,48.8,13.6,30.17,NW,318,3.0,9.0,24,0.00,,---,0.00,VWS V14.01,2013-02-25 20:51:00,
2013-02-25 13:55:00,48.8,15.4,30.17,NW,309,6.0,10.0,26,0.00,,---,0.00,VWS V14.01,2013-02-25 20:55:00,
2013-02-25 14:00:00,49.0,14.7,30.17,West,276,5.0,8.0,25,0.00,,---,0.00,VWS V14.01,2013-02-25 21:00:00,
2013-02-25 14:05:00,49.0,14.7,30.17,NW,309,6.0,7.0,25,0.00,,---,0.00,VWS V14.01,2013-02-25 21:05:00,
2013-02-25 14:10:00,48.9,14.6,30.17,West,263,4.0,7.0,25,0.00,,---,0.00,VWS V14.01,2013-02-25 21:10:00,
2013-02-25 14:15:00,48.9,14.6,30.17,WNW,297,7.0,9.0,25,0.00,,---,0.00,VWS V14.01,2013-02-25 21:15:00,
2013-02-25 14:20:00,49.4,15.1,30.16,West,278,9.0,10.0,25,0.00,,---,0.00,VWS V14.01,2013-02-25 21:20:00,
2013-02-25 14:25:00,50.1,14.7,30.17,NW,319,2.0,4.0,24,0.00,,---,0.00,VWS V14.01,2013-02-25 21:25:00,
2013-02-25 14:30:00,50.3,13.9,30.16,NNW,331,6.0,8.0,23,0.00,,---,0.00,VWS V14.01,2013-02-25 21:30:00,
2013-02-25 14:35:00,49.7,14.4,30.16,WNW,293,2.0,11.0,24,0.00,,---,0.00,VWS V14.01,2013-02-25 21:35:00,
2013-02-25 14:40:00,49.7,14.4,30.16,NW,323,3.0,6.0,24,0.00,,---,0.00,VWS V14.01,2013-02-25 21:40:00,
2013-02-25 14:45:00,49.9,13.6,30.16,NW,313,2.0,9.0,23,0.00,,---,0.00,VWS V14.01,2013-02-25 21:45:00,
2013-02-25 14:50:00,49.9,14.6,30.16,WNW,299,6.0,8.0,24,0.00,,---,0.00,VWS V14.01,2013-02-25 21:50:00,
2013-02-25 14:55:00,50.0,14.6,30.16,SW,220,6.0,6.0,24,0.00,,---,0.00,VWS V14.01,2013-02-25 21:55:00,
2013-02-25 15:00:00,50.0,13.7,30.16,NW,307,1.0,5.0,23,0.00,,---,0.00,VWS V14.01,2013-02-25 22:00:00,
2013-02-25 15:05:00,50.1,14.7,30.16,WNW,303,6.0,6.0,24,0.00,,---,0.00,VWS V14.01,2013-02-25 22:05:00,
2013-02-25 15:10:00,50.2,13.9,30.16,WNW,300,4.0,10.0,23,0.00,,---,0.00,VWS V14.01,2013-02-25 22:10:00,
2013-02-25 15:15:00,50.3,13.9,30.16,West,267,5.0,12.0,23,0.00,,---,0.00,VWS V14.01,2013-02-25 22:15:00,
2013-02-25 15:20:00,50.3,13.9,30.15,NNW,329,1.0,7.0,23,0.00,,---,0.00,VWS V14.01,2013-02-25 22:20:00,
2013-02-25 15:25:00,51.1,15.6,30.15,WNW,300,6.0,11.0,24,0.00,,---,0.00,VWS V14.01,2013-02-25 22:25:00,
2013-02-25 15:30:00,51.0,14.5,30.15,WNW,298,3.0,9.0,23,0.00,,---,0.00,VWS V14.01,2013-02-25 22:30:00,
2013-02-25 15:35:00,50.5,14.1,30.15,West,276,0.0,3.0,23,0.00,,---,0.00,VWS V14.01,2013-02-25 22:35:00,
2013-02-25 15:40:00,50.6,14.2,30.15,West,267,4.0,5.0,23,0.00,,---,0.00,VWS V14.01,2013-02-25 22:40:00,
2013-02-25 15:45:00,50.7,14.3,30.15,West,264,7.0,13.0,23,0.00,,---,0.00,VWS V14.01,2013-02-25 22:45:00,
2013-02-25 15:50:00,50.5,14.1,30.15,West,267,4.0,13.0,23,0.00,,---,0.00,VWS V14.01,2013-02-25 22:50:00,
2013-02-25 15:55:00,50.3,13.9,30.15,West,260,3.0,6.0,23,0.00,,---,0.00,VWS V14.01,2013-02-25 22:55:00,
2013-02-25 16:00:00,50.3,13.9,30.15,WSW,253,1.0,9.0,23,0.00,,---,0.00,VWS V14.01,2013-02-25 23:00:00,
2013-02-25 16:05:00,50.5,13.1,30.14,West,264,1.0,9.0,22,0.00,,---,0.00,VWS V14.01,2013-02-25 23:05:00,
2013-02-25 16:10:00,50.9,14.4,30.14,WNW,291,6.0,7.0,23,0.00,,---,0.00,VWS V14.01,2013-02-25 23:10:00,
2013-02-25 16:15:00,51.0,13.5,30.15,WSW,248,6.0,8.0,22,0.00,,---,0.00,VWS V14.01,2013-02-25 23:15:00,
2013-02-25 16:20:00,51.1,12.5,30.15,West,277,5.0,8.0,21,0.00,,---,0.00,VWS V14.01,2013-02-25 23:20:00,
2013-02-25 16:25:00,51.1,13.6,30.14,SW,223,5.0,5.0,22,0.00,,---,0.00,VWS V14.01,2013-02-25 23:25:00,
2013-02-25 16:30:00,51.1,13.6,30.14,West,269,9.0,12.0,22,0.00,,---,0.00,VWS V14.01,2013-02-25 23:30:00,
2013-02-25 16:35:00,51.1,14.6,30.14,West,259,5.0,10.0,23,0.00,,---,0.00,VWS V14.01,2013-02-25 23:35:00,
2013-02-25 16:40:00,50.9,13.4,30.14,West,275,7.0,11.0,22,0.00,,---,0.00,VWS V14.01,2013-02-25 23:40:00,
2013-02-25 16:45:00,50.5,14.1,30.14,WNW,288,6.0,11.0,23,0.00,,---,0.00,VWS V14.01,2013-02-25 23:45:00,
2013-02-25 16:50:00,50.5,14.1,30.14,NW,309,5.0,5.0,23,0.00,,---,0.00,VWS V14.01,2013-02-25 23:50:00,
2013-02-25 16:55:00,50.6,14.2,30.13,NW,323,0.0,4.0,23,0.00,,---,0.00,VWS V14.01,2013-02-25 23:55:00,
2013-02-25 17:00:00,50.8,14.4,30.13,NW,322,2.0,6.0,23,0.00,,---,0.00,VWS V14.01,2013-02-26 00:00:00,
2013-02-25 17:05:00,50.6,14.2,30.13,NW,309,6.0,6.0,23,0.00,,---,0.00,VWS V14.01,2013-02-26 00:05:00,
2013-02-25 17:10:00,50.5,14.1,30.13,NW,306,4.0,8.0,23,0.00,,---,0.00,VWS V14.01,2013-02-26 00:10:00,
2013-02-25 17:15:00,50.4,14.0,30.13,NW,306,6.0,7.0,23,0.00,,---,0.00,VWS V14.01,2013-02-26 00:15:00,
2013-02-25 17:20:00,50.2,12.8,30.13,NNW,330,3.0,4.0,22,0.00,,---,0.00,VWS V14.01,2013-02-26 00:20:00,
2013-02-25 17:25:00,50.3,13.9,30.13,NW,319,6.0,7.0,23,0.00,,---,0.00,VWS V14.01,2013-02-26 00:25:00,
2013-02-25 17:30:00,50.1,13.8,30.13,NW,316,3.0,8.0,23,0.00,,---,0.00,VWS V14.01,2013-02-26 00:30:00,
2013-02-25 17:35:00,49.9,13.6,30.12,NNW,327,2.0,4.0,23,0.00,,---,0.00,VWS V14.01,2013-02-26 00:35:00,
2013-02-25 17:40:00,49.8,13.5,30.12,NW,323,4.0,7.0,23,0.00,,---,0.00,VWS V14.01,2013-02-26 00:40:00,
2013-02-25 17:45:00,49.5,14.2,30.12,NW,318,2.0,6.0,24,0.00,,---,0.00,VWS V14.01,2013-02-26 00:45:00,
2013-02-25 17:50:00,49.1,14.8,30.13,NW,311,3.0,8.0,25,0.00,,---,0.00,VWS V14.01,2013-02-26 00:50:00,
2013-02-25 17:55:00,48.6,15.3,30.13,NW,304,4.0,9.0,26,0.00,,---,0.00,VWS V14.01,2013-02-26 00:55:00,
2013-02-25 18:00:00,48.1,14.9,30.13,NW,315,0.0,6.0,26,0.00,,---,0.00,VWS V14.01,2013-02-26 01:00:00,
2013-02-25 18:05:00,47.6,14.4,30.13,NW,317,5.0,7.0,26,0.00,,---,0.00,VWS V14.01,2013-02-26 01:05:00,
2013-02-25 18:10:00,46.8,14.6,30.13,WNW,298,2.0,7.0,27,0.00,,---,0.00,VWS V14.01,2013-02-26 01:10:00,
2013-02-25 18:15:00,46.1,14.8,30.13,WNW,298,0.0,7.0,28,0.00,,---,0.00,VWS V14.01,2013-02-26 01:15:00,
2013-02-25 18:20:00,45.5,14.3,30.13,WNW,298,0.0,1.0,28,0.00,,---,0.00,VWS V14.01,2013-02-26 01:20:00,
2013-02-25 18:25:00,45.0,14.7,30.13,WNW,298,0.0,1.0,29,0.00,,---,0.00,VWS V14.01,2013-02-26 01:25:00,
2013-02-25 18:30:00,44.7,14.4,30.13,WNW,298,0.0,0.0,29,0.00,,---,0.00,VWS V14.01,2013-02-26 01:30:00,
2013-02-25 18:35:00,44.3,14.8,30.12,WNW,298,0.0,0.0,30,0.00,,---,0.00,VWS V14.01,2013-02-26 01:35:00,
2013-02-25 18:40:00,43.8,14.4,30.12,WNW,298,0.0,0.0,30,0.00,,---,0.00,VWS V14.01,2013-02-26 01:40:00,
2013-02-25 18:45:00,43.1,14.5,30.12,NW,304,0.0,0.0,31,0.00,,---,0.00,VWS V14.01,2013-02-26 01:45:00,
2013-02-25 18:50:00,42.3,14.6,30.12,NW,304,0.0,0.0,32,0.00,,---,0.00,VWS V14.01,2013-02-26 01:50:00,
2013-02-25 18:55:00,41.8,14.8,30.12,NW,307,0.0,0.0,33,0.00,,---,0.00,VWS V14.01,2013-02-26 01:55:00,
2013-02-25 19:00:00,40.7,15.2,30.12,NW,310,0.0,0.0,35,0.00,,---,0.00,VWS V14.01,2013-02-26 02:00:00,
2013-02-25 19:05:00,39.5,15.4,30.12,NW,310,0.0,0.0,37,0.00,,---,0.00,VWS V14.01,2013-02-26 02:05:00,
2013-02-25 19:10:00,38.3,14.9,30.12,NW,310,0.0,0.0,38,0.00,,---,0.00,VWS V14.01,2013-02-26 02:10:00,
2013-02-25 19:15:00,38.5,14.5,30.12,NNE,17,1.0,2.0,37,0.00,,---,0.00,VWS V14.01,2013-02-26 02:15:00,
2013-02-25 19:20:00,39.6,14.9,30.12,NE,36,1.0,2.0,36,0.00,,---,0.00,VWS V14.01,2013-02-26 02:20:00,
2013-02-25 19:25:00,39.5,14.8,30.12,NE,43,0.0,2.0,36,0.00,,---,0.00,VWS V14.01,2013-02-26 02:25:00,
2013-02-25 19:30:00,38.6,15.2,30.13,NE,44,1.0,1.0,38,0.00,,---,0.00,VWS V14.01,2013-02-26 02:30:00,
2013-02-25 19:35:00,37.3,15.2,30.12,NE,44,0.0,1.0,40,0.00,,---,0.00,VWS V14.01,2013-02-26 02:35:00,
2013-02-25 19:40:00,36.8,15.3,30.12,NE,44,1.0,1.0,41,0.00,,---,0.00,VWS V14.01,2013-02-26 02:40:00,
2013-02-25 19:45:00,36.5,15.6,30.12,NE,44,1.0,1.0,42,0.00,,---,0.00,VWS V14.01,2013-02-26 02:45:00,
2013-02-25 19:50:00,36.0,15.7,30.12,NE,49,1.0,1.0,43,0.00,,---,0.00,VWS V14.01,2013-02-26 02:50:00,
2013-02-25 19:55:00,35.6,15.9,30.12,NE,53,0.0,1.0,44,0.00,,---,0.00,VWS V14.01,2013-02-26 02:55:00,
2013-02-25 20:00:00,35.4,15.7,30.12,NE,55,1.0,1.0,44,0.00,,---,0.00,VWS V14.01,2013-02-26 03:00:00,
2013-02-25 20:05:00,35.4,15.7,30.12,ENE,57,0.0,1.0,44,0.00,,---,0.00,VWS V14.01,2013-02-26 03:05:00,
2013-02-25 20:10:00,35.7,15.9,30.12,ENE,58,1.0,1.0,44,0.00,,---,0.00,VWS V14.01,2013-02-26 03:10:00,
2013-02-25 20:15:00,35.6,15.9,30.12,ENE,60,0.0,1.0,44,0.00,,---,0.00,VWS V14.01,2013-02-26 03:15:00,
2013-02-25 20:20:00,35.3,15.6,30.13,ENE,60,0.0,1.0,44,0.00,,---,0.00,VWS V14.01,2013-02-26 03:20:00,
2013-02-25 20:25:00,35.1,15.9,30.13,ENE,61,1.0,1.0,45,0.00,,---,0.00,VWS V14.01,2013-02-26 03:25:00,
2013-02-25 20:30:00,34.8,15.6,30.12,ENE,61,0.0,1.0,45,0.00,,---,0.00,VWS V14.01,2013-02-26 03:30:00,
2013-02-25 20:35:00,34.8,15.6,30.12,ENE,60,0.0,1.0,45,0.00,,---,0.00,VWS V14.01,2013-02-26 03:35:00,
2013-02-25 20:40:00,34.7,15.6,30.12,ENE,60,0.0,1.0,45,0.00,,---,0.00,VWS V14.01,2013-02-26 03:40:00,
2013-02-25 20:45:00,34.4,15.8,30.12,ENE,60,0.0,0.0,46,0.00,,---,0.00,VWS V14.01,2013-02-26 03:45:00,
2013-02-25 20:50:00,33.8,15.7,30.11,ENE,60,0.0,1.0,47,0.00,,---,0.00,VWS V14.01,2013-02-26 03:50:00,
2013-02-25 20:55:00,33.6,16.0,30.11,ENE,61,0.0,1.0,48,0.00,,---,0.00,VWS V14.01,2013-02-26 03:55:00,
2013-02-25 21:00:00,33.6,15.5,30.11,ENE,61,0.0,1.0,47,0.00,,---,0.00,VWS V14.01,2013-02-26 04:00:00,
2013-02-25 21:05:00,33.3,15.7,30.11,ENE,61,1.0,1.0,48,0.00,,---,0.00,VWS V14.01,2013-02-26 04:05:00,
2013-02-25 21:10:00,33.0,15.9,30.11,ENE,64,0.0,1.0,49,0.00,,---,0.00,VWS V14.01,2013-02-26 04:10:00,
2013-02-25 21:15:00,32.9,15.9,30.11,ENE,64,0.0,0.0,49,0.00,,---,0.00,VWS V14.01,2013-02-26 04:15:00,
2013-02-25 21:20:00,32.3,15.8,30.11,ENE,64,0.0,0.0,50,0.00,,---,0.00,VWS V14.01,2013-02-26 04:20:00,
2013-02-25 21:25:00,31.7,15.7,30.11,ENE,66,0.0,1.0,51,0.00,,---,0.00,VWS V14.01,2013-02-26 04:25:00,
2013-02-25 21:30:00,31.4,15.8,30.11,ENE,66,0.0,0.0,52,0.00,,---,0.00,VWS V14.01,2013-02-26 04:30:00,
2013-02-25 21:35:00,31.1,16.0,30.11,ENE,65,0.0,0.0,53,0.00,,---,0.00,VWS V14.01,2013-02-26 04:35:00,
2013-02-25 21:40:00,31.0,15.9,30.11,ENE,66,0.0,0.0,53,0.00,,---,0.00,VWS V14.01,2013-02-26 04:40:00,
2013-02-25 21:45:00,30.8,15.7,30.11,ENE,65,0.0,0.0,53,0.00,,---,0.00,VWS V14.01,2013-02-26 04:45:00,
2013-02-25 21:50:00,30.4,15.3,30.12,ENE,66,0.0,0.0,53,0.00,,---,0.00,VWS V14.01,2013-02-26 04:50:00,
2013-02-25 21:55:00,30.1,15.5,30.12,ENE,66,0.0,0.0,54,0.00,,---,0.00,VWS V14.01,2013-02-26 04:55:00,
2013-02-25 22:00:00,29.7,15.1,30.12,ENE,65,0.0,0.0,54,0.00,,---,0.00,VWS V14.01,2013-02-26 05:00:00,
2013-02-25 22:05:00,29.5,15.3,30.12,ENE,65,0.0,0.0,55,0.00,,---,0.00,VWS V14.01,2013-02-26 05:05:00,
2013-02-25 22:10:00,29.0,15.3,30.12,ENE,70,1.0,1.0,56,0.00,,---,0.00,VWS V14.01,2013-02-26 05:10:00,
2013-02-25 22:15:00,28.7,15.4,30.12,ENE,70,0.0,0.0,57,0.00,,---,0.00,VWS V14.01,2013-02-26 05:15:00,
2013-02-25 22:20:00,28.3,15.4,30.12,ENE,69,0.0,0.0,58,0.00,,---,0.00,VWS V14.01,2013-02-26 05:20:00,
2013-02-25 22:25:00,28.0,15.1,30.12,ENE,70,0.0,0.0,58,0.00,,---,0.00,VWS V14.01,2013-02-26 05:25:00,
2013-02-25 22:30:00,27.9,15.8,30.12,ENE,70,0.0,0.0,60,0.00,,---,0.00,VWS V14.01,2013-02-26 05:30:00,
2013-02-25 22:35:00,27.9,15.8,30.12,ENE,70,0.0,0.0,60,0.00,,---,0.00,VWS V14.01,2013-02-26 05:35:00,
2013-02-25 22:40:00,27.8,15.7,30.12,ENE,69,0.0,0.0,60,0.00,,---,0.00,VWS V14.01,2013-02-26 05:40:00,
2013-02-25 22:45:00,27.5,15.4,30.12,ENE,70,0.0,0.0,60,0.00,,---,0.00,VWS V14.01,2013-02-26 05:45:00,
2013-02-25 22:50:00,27.2,15.6,30.12,ENE,70,0.0,0.0,61,0.00,,---,0.00,VWS V14.01,2013-02-26 05:50:00,
2013-02-25 22:55:00,27.0,15.7,30.12,ENE,70,0.0,0.0,62,0.00,,---,0.00,VWS V14.01,2013-02-26 05:55:00,
2013-02-25 23:00:00,26.8,15.9,30.11,ENE,70,0.0,0.0,63,0.00,,---,0.00,VWS V14.01,2013-02-26 06:00:00,
2013-02-25 23:05:00,26.4,15.5,30.11,ENE,69,0.0,0.0,63,0.00,,---,0.00,VWS V14.01,2013-02-26 06:05:00,
2013-02-25 23:10:00,26.2,15.7,30.11,ENE,70,0.0,1.0,64,0.00,,---,0.00,VWS V14.01,2013-02-26 06:10:00,
2013-02-25 23:15:00,26.1,16.0,30.11,ENE,70,0.0,0.0,65,0.00,,---,0.00,VWS V14.01,2013-02-26 06:15:00,
2013-02-25 23:20:00,26.0,15.9,30.11,ENE,69,0.0,0.0,65,0.00,,---,0.00,VWS V14.01,2013-02-26 06:20:00,
2013-02-25 23:25:00,26.0,15.9,30.11,ENE,69,0.0,0.0,65,0.00,,---,0.00,VWS V14.01,2013-02-26 06:25:00,
2013-02-25 23:30:00,26.2,15.7,30.11,ENE,70,0.0,0.0,64,0.00,,---,0.00,VWS V14.01,2013-02-26 06:30:00,
2013-02-25 23:35:00,26.3,15.8,30.11,ENE,70,0.0,0.0,64,0.00,,---,0.00,VWS V14.01,2013-02-26 06:35:00,
2013-02-25 23:40:00,26.3,15.4,30.11,ENE,71,0.0,0.0,63,0.00,,---,0.00,VWS V14.01,2013-02-26 06:40:00,
2013-02-25 23:45:00,26.2,15.7,30.11,ENE,71,0.0,0.0,64,0.00,,---,0.00,VWS V14.01,2013-02-26 06:45:00,
2013-02-25 23:50:00,25.9,15.4,30.11,ENE,71,0.0,0.0,64,0.00,,---,0.00,VWS V14.01,2013-02-26 06:50:00,
2013-02-25 23:55:00,25.9,15.1,30.11,ENE,74,0.0,0.0,63,0.00,,---,0.00,VWS V14.01,2013-02-26 06:55:00,